createdAt,value
2018-03-19T00:00:30.912Z,55.30
2018-03-19T00:01:32.288Z,55.49
2018-03-19T00:02:33.669Z,55.77
2018-03-19T00:03:35.051Z,55.86
2018-03-19T00:04:36.440Z,55.67
2018-03-19T00:05:37.837Z,56.34
2018-03-19T00:06:39.210Z,56.52
2018-03-19T00:07:40.549Z,56.62
2018-03-19T00:08:41.928Z,56.24
2018-03-19T00:09:43.308Z,56.43
2018-03-19T00:10:44.680Z,56.52
2018-03-19T00:11:46.042Z,56.81
2018-03-19T00:12:47.423Z,57.09
2018-03-19T00:13:48.793Z,56.81
2018-03-19T00:14:50.949Z,56.90
2018-03-19T00:15:52.311Z,56.43
2018-03-19T00:16:53.692Z,56.99
2018-03-19T00:17:55.065Z,56.99
2018-03-19T00:18:56.446Z,57.18
2018-03-19T00:19:57.811Z,56.99
2018-03-19T00:20:59.189Z,57.37
2018-03-19T00:22:00.567Z,57.84
2018-03-19T00:23:01.938Z,57.84
2018-03-19T00:24:03.334Z,57.65
2018-03-19T00:25:04.717Z,57.84
2018-03-19T00:26:06.088Z,58.12
2018-03-19T00:27:07.455Z,57.94
2018-03-19T00:28:08.834Z,57.94
2018-03-19T00:29:10.212Z,58.31
2018-03-19T00:30:11.577Z,58.12
2018-03-19T00:31:12.953Z,58.79
2018-03-19T00:32:14.328Z,58.03
2018-03-19T00:33:15.700Z,58.50
2018-03-19T00:34:17.074Z,58.41
2018-03-19T00:35:18.456Z,58.31
2018-03-19T00:36:19.833Z,58.41
2018-03-19T00:37:21.208Z,58.60
2018-03-19T00:38:22.582Z,58.22
2018-03-19T00:39:23.960Z,58.41
2018-03-19T00:40:25.325Z,58.22
2018-03-19T00:41:26.694Z,58.88
2018-03-19T00:42:28.090Z,58.69
2018-03-19T00:43:29.399Z,58.69
2018-03-19T00:44:30.778Z,58.88
2018-03-19T00:45:32.160Z,59.35
2018-03-19T00:46:33.529Z,58.88
2018-03-19T00:47:34.904Z,59.07
2018-03-19T00:48:36.271Z,59.07
2018-03-19T00:49:37.646Z,59.26
2018-03-19T00:50:39.025Z,58.69
2018-03-19T00:51:40.398Z,58.41
2018-03-19T00:52:41.761Z,59.17
2018-03-19T00:53:43.139Z,59.17
2018-03-19T00:54:44.512Z,58.69
2018-03-19T00:55:45.898Z,59.35
2018-03-19T00:56:47.259Z,59.17
2018-03-19T00:57:48.634Z,59.07
2018-03-19T00:58:50.028Z,59.07
2018-03-19T00:59:51.394Z,59.14
2018-03-19T01:00:52.772Z,58.76
2018-03-19T01:01:54.193Z,59.07
2018-03-19T01:02:56.440Z,58.85
2018-03-19T01:03:57.810Z,59.42
2018-03-19T01:04:59.182Z,58.85
2018-03-19T01:06:00.557Z,59.42
2018-03-19T01:07:01.930Z,59.70
2018-03-19T01:08:03.318Z,59.61
2018-03-19T01:09:04.691Z,59.61
2018-03-19T01:10:06.083Z,60.08
2018-03-19T01:11:07.458Z,60.08
2018-03-19T01:12:08.838Z,60.36
2018-03-19T01:13:10.223Z,60.27
2018-03-19T01:14:11.600Z,60.36
2018-03-19T01:15:12.977Z,60.27
2018-03-19T01:16:14.339Z,60.36
2018-03-19T01:17:15.711Z,60.36
2018-03-19T01:18:17.091Z,60.83
2018-03-19T01:19:18.477Z,60.64
2018-03-19T01:20:19.843Z,60.46
2018-03-19T01:21:21.212Z,61.30
2018-03-19T01:22:22.592Z,61.21
2018-03-19T01:23:23.972Z,61.11
2018-03-19T01:24:25.330Z,61.21
2018-03-19T01:25:26.718Z,60.83
2018-03-19T01:26:28.103Z,61.58
2018-03-19T01:27:29.475Z,61.21
2018-03-19T01:28:30.860Z,61.40
2018-03-19T01:29:32.246Z,61.68
2018-03-19T01:30:33.618Z,61.30
2018-03-19T01:31:34.996Z,61.96
2018-03-19T01:32:36.370Z,61.96
2018-03-19T01:33:37.738Z,62.06
2018-03-19T01:34:39.119Z,62.15
2018-03-19T01:35:40.494Z,62.25
2018-03-19T01:36:41.877Z,61.87
2018-03-19T01:37:43.251Z,61.96
2018-03-19T01:38:44.637Z,61.96
2018-03-19T01:39:46.000Z,62.15
2018-03-19T01:40:47.375Z,62.15
2018-03-19T01:41:48.738Z,62.53
2018-03-19T01:42:50.121Z,62.72
2018-03-19T01:43:51.487Z,62.53
2018-03-19T01:44:52.859Z,62.43
2018-03-19T01:45:54.236Z,62.34
2018-03-19T01:46:55.615Z,61.96
2018-03-19T01:47:56.996Z,61.96
2018-03-19T01:48:58.357Z,62.06
2018-03-19T01:49:59.735Z,62.15
2018-03-19T01:51:01.156Z,61.96
2018-03-19T01:52:02.519Z,62.06
2018-03-19T01:53:03.898Z,61.96
2018-03-19T01:54:05.281Z,61.87
2018-03-19T01:55:07.058Z,61.77
2018-03-19T01:56:08.430Z,61.77
2018-03-19T01:57:09.804Z,61.77
2018-03-19T01:58:11.196Z,61.87
2018-03-19T01:59:12.560Z,61.68
2018-03-19T02:00:13.939Z,62.25
2018-03-19T02:01:15.306Z,62.53
2018-03-19T02:02:16.678Z,62.43
2018-03-19T02:03:18.054Z,62.43
2018-03-19T02:04:20.328Z,62.43
2018-03-19T02:05:21.706Z,62.43
2018-03-19T02:06:23.075Z,62.25
2018-03-19T02:07:24.446Z,62.53
2018-03-19T02:08:25.828Z,62.15
2018-03-19T02:09:27.201Z,62.34
2018-03-19T02:10:28.567Z,62.53
2018-03-19T02:11:29.937Z,62.43
2018-03-19T02:12:31.314Z,62.43
2018-03-19T02:13:32.669Z,62.53
2018-03-19T02:14:34.067Z,62.53
2018-03-19T02:15:35.441Z,63.29
2018-03-19T02:16:36.811Z,63.38
2018-03-19T02:17:38.197Z,63.10
2018-03-19T02:18:39.574Z,63.10
2018-03-19T02:19:40.957Z,63.29
2018-03-19T02:20:42.336Z,63.47
2018-03-19T02:21:43.710Z,63.66
2018-03-19T02:22:45.084Z,63.76
2018-03-19T02:23:46.458Z,63.95
2018-03-19T02:24:47.838Z,63.66
2018-03-19T02:25:49.222Z,63.66
2018-03-19T02:26:50.582Z,63.66
2018-03-19T02:27:51.962Z,64.23
2018-03-19T02:28:53.330Z,64.04
2018-03-19T02:29:54.735Z,64.14
2018-03-19T02:30:56.106Z,64.51
2018-03-19T02:31:57.473Z,64.42
2018-03-19T02:32:58.848Z,64.32
2018-03-19T02:34:00.224Z,64.32
2018-03-19T02:35:01.600Z,64.89
2018-03-19T02:36:02.969Z,64.89
2018-03-19T02:37:04.352Z,64.61
2018-03-19T02:38:05.726Z,64.89
2018-03-19T02:39:07.106Z,64.79
2018-03-19T02:40:08.489Z,65.08
2018-03-19T02:41:09.879Z,65.17
2018-03-19T02:42:11.255Z,65.36
2018-03-19T02:43:12.618Z,65.26
2018-03-19T02:44:13.983Z,65.17
2018-03-19T02:45:15.368Z,65.26
2018-03-19T02:46:16.752Z,65.83
2018-03-19T02:47:18.145Z,65.73
2018-03-19T02:48:19.514Z,65.45
2018-03-19T02:49:20.885Z,65.64
2018-03-19T02:50:22.263Z,65.64
2018-03-19T02:51:23.637Z,65.83
2018-03-19T02:52:25.022Z,65.64
2018-03-19T02:53:26.410Z,65.83
2018-03-19T02:54:27.779Z,66.21
2018-03-19T02:55:29.146Z,66.49
2018-03-19T02:56:30.530Z,66.49
2018-03-19T02:57:31.909Z,66.58
2018-03-19T02:58:33.289Z,66.87
2018-03-19T02:59:34.652Z,66.87
2018-03-19T03:00:36.026Z,66.77
2018-03-19T03:01:37.402Z,66.49
2018-03-19T03:02:38.779Z,66.58
2018-03-19T03:03:40.140Z,66.77
2018-03-19T03:04:41.511Z,67.34
2018-03-19T03:05:42.873Z,67.25
2018-03-19T03:06:44.251Z,67.34
2018-03-19T03:07:46.409Z,67.53
2018-03-19T03:08:47.777Z,67.53
2018-03-19T03:09:49.152Z,67.53
2018-03-19T03:10:50.532Z,67.91
2018-03-19T03:11:51.901Z,67.43
2018-03-19T03:12:53.273Z,68.00
2018-03-19T03:13:54.647Z,68.00
2018-03-19T03:14:56.016Z,68.00
2018-03-19T03:15:57.391Z,67.81
2018-03-19T03:16:58.766Z,67.72
2018-03-19T03:18:00.135Z,67.91
2018-03-19T03:19:01.518Z,67.72
2018-03-19T03:20:02.879Z,68.19
2018-03-19T03:21:04.252Z,68.29
2018-03-19T03:22:05.629Z,68.19
2018-03-19T03:23:07.007Z,68.47
2018-03-19T03:24:08.368Z,68.95
2018-03-19T03:25:09.751Z,68.29
2018-03-19T03:26:11.120Z,68.85
2018-03-19T03:27:12.513Z,68.76
2018-03-19T03:28:13.890Z,68.57
2018-03-19T03:29:15.262Z,68.57
2018-03-19T03:30:16.630Z,69.70
2018-03-19T03:31:18.000Z,69.23
2018-03-19T03:32:19.378Z,69.51
2018-03-19T03:33:20.760Z,69.51
2018-03-19T03:34:22.142Z,69.70
2018-03-19T03:35:23.503Z,69.70
2018-03-19T03:36:24.894Z,69.89
2018-03-19T03:37:26.263Z,69.70
2018-03-19T03:38:27.641Z,69.79
2018-03-19T03:39:29.015Z,70.07
2018-03-19T03:40:30.394Z,70.54
2018-03-19T03:41:31.765Z,70.26
2018-03-19T03:42:33.148Z,70.26
2018-03-19T03:43:34.519Z,70.45
2018-03-19T03:44:35.913Z,70.83
2018-03-19T03:45:37.290Z,70.73
2018-03-19T03:46:38.660Z,71.21
2018-03-19T03:47:40.032Z,71.11
2018-03-19T03:48:41.413Z,71.21
2018-03-19T03:49:42.782Z,71.68
2018-03-19T03:50:44.152Z,71.49
2018-03-19T03:51:45.538Z,71.30
2018-03-19T03:52:46.896Z,71.58
2018-03-19T03:53:48.326Z,72.15
2018-03-19T03:54:49.687Z,71.77
2018-03-19T03:55:51.062Z,71.87
2018-03-19T03:56:52.428Z,72.25
2018-03-19T03:57:53.811Z,72.06
2018-03-19T03:58:55.186Z,72.25
2018-03-19T03:59:56.567Z,72.25
2018-03-19T04:00:57.940Z,72.25
2018-03-19T04:01:59.311Z,72.44
2018-03-19T04:03:00.702Z,72.72
2018-03-19T04:04:02.063Z,72.53
2018-03-19T04:05:03.969Z,72.91
2018-03-19T04:06:05.344Z,72.81
2018-03-19T04:07:06.731Z,72.91
2018-03-19T04:08:08.095Z,72.81
2018-03-19T04:09:09.462Z,72.62
2018-03-19T04:10:10.835Z,72.72
2018-03-19T04:11:12.207Z,72.72
2018-03-19T04:12:13.590Z,72.53
2018-03-19T04:13:14.972Z,73.00
2018-03-19T04:14:16.327Z,72.72
2018-03-19T04:15:17.710Z,73.28
2018-03-19T04:16:19.084Z,73.19
2018-03-19T04:17:20.469Z,73.00
2018-03-19T04:18:21.852Z,73.10
2018-03-19T04:19:23.215Z,73.66
2018-03-19T04:20:24.600Z,73.19
2018-03-19T04:21:25.975Z,73.19
2018-03-19T04:22:27.338Z,73.66
2018-03-19T04:23:28.722Z,73.38
2018-03-19T04:24:30.092Z,73.66
2018-03-19T04:25:31.460Z,73.38
2018-03-19T04:26:32.836Z,73.57
2018-03-19T04:27:34.212Z,73.66
2018-03-19T04:28:35.591Z,74.13
2018-03-19T04:29:36.961Z,74.04
2018-03-19T04:30:38.341Z,73.66
2018-03-19T04:31:39.766Z,73.85
2018-03-19T04:32:41.160Z,74.22
2018-03-19T04:33:42.474Z,74.22
2018-03-19T04:34:43.852Z,74.38
2018-03-19T04:35:45.215Z,74.38
2018-03-19T04:36:46.587Z,74.10
2018-03-19T04:37:47.961Z,74.38
2018-03-19T04:38:49.338Z,74.69
2018-03-19T04:39:50.713Z,74.95
2018-03-19T04:40:52.084Z,74.69
2018-03-19T04:41:53.458Z,74.60
2018-03-19T04:42:54.832Z,74.76
2018-03-19T04:43:56.204Z,74.95
2018-03-19T04:44:57.582Z,74.66
2018-03-19T04:45:58.956Z,74.95
2018-03-19T04:47:00.320Z,75.04
2018-03-19T04:48:01.696Z,74.79
2018-03-19T04:49:03.077Z,74.85
2018-03-19T04:50:04.458Z,75.04
2018-03-19T04:51:05.816Z,74.88
2018-03-19T04:52:07.195Z,74.76
2018-03-19T04:53:08.569Z,74.57
2018-03-19T04:54:09.935Z,74.95
2018-03-19T04:55:11.312Z,75.32
2018-03-19T04:56:12.695Z,75.23
2018-03-19T04:57:14.049Z,75.42
2018-03-19T04:58:15.421Z,75.42
2018-03-19T04:59:16.811Z,75.32
2018-03-19T05:00:18.179Z,75.42
2018-03-19T05:01:19.551Z,75.42
2018-03-19T05:02:20.927Z,75.70
2018-03-19T05:03:22.320Z,75.60
2018-03-19T05:04:23.680Z,75.70
2018-03-19T05:05:25.058Z,75.79
2018-03-19T05:06:26.443Z,76.17
2018-03-19T05:07:27.798Z,75.98
2018-03-19T05:08:29.175Z,75.79
2018-03-19T05:09:30.556Z,75.89
2018-03-19T05:10:31.937Z,75.89
2018-03-19T05:11:33.892Z,76.35
2018-03-19T05:12:35.272Z,76.26
2018-03-19T05:13:36.648Z,76.26
2018-03-19T05:14:38.027Z,76.64
2018-03-19T05:15:39.400Z,76.82
2018-03-19T05:16:40.780Z,76.82
2018-03-19T05:17:42.138Z,76.45
2018-03-19T05:18:43.528Z,77.01
2018-03-19T05:19:44.906Z,77.11
2018-03-19T05:20:46.289Z,76.73
2018-03-19T05:21:47.676Z,76.54
2018-03-19T05:22:49.053Z,76.45
2018-03-19T05:23:50.429Z,76.45
2018-03-19T05:24:51.796Z,76.92
2018-03-19T05:25:53.180Z,77.11
2018-03-19T05:26:54.569Z,76.92
2018-03-19T05:27:55.957Z,77.49
2018-03-19T05:28:57.333Z,77.39
2018-03-19T05:29:58.719Z,77.39
2018-03-19T05:31:00.097Z,77.67
2018-03-19T05:32:01.526Z,77.49
2018-03-19T05:33:02.893Z,77.58
2018-03-19T05:34:04.264Z,77.39
2018-03-19T05:35:05.642Z,77.67
2018-03-19T05:36:07.023Z,77.49
2018-03-19T05:37:08.406Z,77.77
2018-03-19T05:38:09.786Z,77.20
2018-03-19T05:39:11.172Z,77.67
2018-03-19T05:40:12.546Z,77.30
2018-03-19T05:41:13.916Z,77.34
2018-03-19T05:42:15.286Z,77.30
2018-03-19T05:43:16.668Z,77.20
2018-03-19T05:44:18.039Z,77.20
2018-03-19T05:45:19.406Z,77.67
2018-03-19T05:46:20.794Z,77.62
2018-03-19T05:47:22.162Z,77.39
2018-03-19T05:48:23.548Z,77.20
2018-03-19T05:49:24.923Z,76.92
2018-03-19T05:50:26.285Z,76.96
2018-03-19T05:51:27.667Z,77.06
2018-03-19T05:52:29.039Z,77.06
2018-03-19T05:53:30.419Z,77.06
2018-03-19T05:54:31.801Z,77.15
2018-03-19T05:55:33.180Z,76.96
2018-03-19T05:56:34.583Z,76.58
2018-03-19T05:57:35.963Z,76.68
2018-03-19T05:58:37.343Z,77.15
2018-03-19T05:59:38.709Z,76.96
2018-03-19T06:00:40.102Z,77.34
2018-03-19T06:01:41.473Z,76.40
2018-03-19T06:02:42.884Z,76.49
2018-03-19T06:03:44.192Z,76.58
2018-03-19T06:04:45.582Z,75.83
2018-03-19T06:05:46.960Z,75.54
2018-03-19T06:06:48.349Z,75.45
2018-03-19T06:07:49.754Z,74.88
2018-03-19T06:08:51.140Z,74.98
2018-03-19T06:09:52.522Z,74.60
2018-03-19T06:10:53.896Z,73.94
2018-03-19T06:11:55.270Z,73.32
2018-03-19T06:12:56.663Z,73.60
2018-03-19T06:13:58.038Z,73.03
2018-03-19T06:14:59.420Z,72.66
2018-03-19T06:16:00.804Z,72.28
2018-03-19T06:17:02.189Z,72.09
2018-03-19T06:18:03.565Z,71.91
2018-03-19T06:19:04.969Z,71.53
2018-03-19T06:20:06.355Z,71.43
2018-03-19T06:21:07.733Z,70.49
2018-03-19T06:22:09.110Z,70.39
2018-03-19T06:23:10.492Z,70.02
2018-03-19T06:24:11.891Z,70.02
2018-03-19T06:25:13.269Z,69.45
2018-03-19T06:26:14.643Z,69.45
2018-03-19T06:27:16.020Z,69.54
2018-03-19T06:28:17.386Z,69.45
2018-03-19T06:29:18.766Z,68.70
2018-03-19T06:30:20.145Z,68.54
2018-03-19T06:31:21.549Z,68.54
2018-03-19T06:32:23.531Z,68.16
2018-03-19T06:33:24.911Z,67.60
2018-03-19T06:34:26.331Z,67.69
2018-03-19T06:35:27.722Z,67.32
2018-03-19T06:36:29.100Z,66.75
2018-03-19T06:37:30.474Z,66.56
2018-03-19T06:38:31.858Z,65.90
2018-03-19T06:39:33.245Z,65.61
2018-03-19T06:40:34.642Z,65.05
2018-03-19T06:41:36.108Z,64.76
2018-03-19T06:42:37.502Z,64.39
2018-03-19T06:43:38.996Z,64.61
2018-03-19T06:44:40.359Z,63.76
2018-03-19T06:45:41.856Z,63.85
2018-03-19T06:46:43.233Z,63.29
2018-03-19T06:47:44.776Z,62.91
2018-03-19T06:48:46.155Z,62.72
2018-03-19T06:49:47.633Z,61.87
2018-03-19T06:50:49.007Z,61.58
2018-03-19T06:51:50.409Z,61.21
2018-03-19T06:52:51.789Z,60.96
2018-03-19T06:53:53.181Z,60.11
2018-03-19T06:54:54.565Z,59.73
2018-03-19T06:55:56.011Z,59.54
2018-03-19T06:56:57.401Z,59.73
2018-03-19T06:57:58.822Z,58.50
2018-03-19T06:59:00.206Z,58.40
2018-03-19T07:00:01.588Z,57.93
2018-03-19T07:01:02.996Z,57.65
2018-03-19T07:02:04.396Z,57.37
2018-03-19T07:03:05.780Z,57.18
2018-03-19T07:04:07.206Z,56.45
2018-03-19T07:05:08.592Z,55.98
2018-03-19T07:06:10.054Z,55.69
2018-03-19T07:07:11.382Z,55.50
2018-03-19T07:08:12.763Z,54.84
2018-03-19T07:09:14.152Z,55.12
2018-03-19T07:10:15.541Z,54.77
2018-03-19T07:11:16.936Z,53.36
2018-03-19T07:12:18.318Z,52.50
2018-03-19T07:13:19.686Z,52.22
2018-03-19T07:14:21.101Z,51.93
2018-03-19T07:15:22.491Z,50.71
2018-03-19T07:16:23.871Z,50.26
2018-03-19T07:17:25.256Z,49.69
2018-03-19T07:18:26.642Z,49.60
2018-03-19T07:19:28.024Z,49.22
2018-03-19T07:20:29.403Z,48.65
2018-03-19T07:21:30.807Z,47.91
2018-03-19T07:22:32.867Z,46.59
2018-03-19T07:23:33.518Z,45.29
2018-03-19T07:24:34.908Z,44.62
2018-03-19T07:25:36.287Z,43.60
2018-03-19T07:26:37.668Z,42.27
2018-03-19T07:27:39.060Z,40.76
2018-03-19T07:28:40.456Z,40.69
2018-03-19T07:29:41.827Z,40.23
2018-03-19T07:30:43.224Z,38.81
2018-03-19T07:31:44.608Z,37.59
2018-03-19T07:32:46.938Z,36.09
2018-03-19T07:33:48.340Z,34.57
2018-03-19T07:34:49.730Z,33.45
2018-03-19T07:35:51.114Z,32.61
2018-03-19T07:36:52.515Z,31.20
2018-03-19T07:37:53.905Z,29.41
2018-03-19T07:38:55.290Z,27.90
2018-03-19T07:39:56.679Z,26.50
2018-03-19T07:40:58.130Z,24.89
2018-03-19T07:41:59.461Z,24.15
2018-03-19T07:43:01.079Z,22.54
2018-03-19T07:44:02.497Z,21.11
2018-03-19T07:45:03.815Z,20.45
2018-03-19T07:46:05.924Z,19.79
2018-03-19T07:47:09.548Z,19.40
2018-03-19T07:48:10.935Z,18.94
2018-03-19T07:49:12.320Z,18.57
2018-03-19T07:50:13.712Z,17.62
2018-03-19T07:51:15.682Z,16.09
2018-03-19T07:52:17.072Z,15.80
2018-03-19T07:53:18.509Z,15.33
2018-03-19T07:54:19.906Z,14.74
2018-03-19T07:55:21.593Z,15.04
2018-03-19T07:56:22.984Z,14.65
2018-03-19T07:57:24.399Z,14.85
2018-03-19T07:58:25.784Z,14.48
2018-03-19T07:59:27.190Z,13.71
2018-03-19T08:00:30.104Z,13.23
2018-03-19T08:01:34.637Z,13.13
2018-03-19T08:02:37.204Z,12.55
2018-03-19T08:03:38.592Z,12.56
2018-03-19T08:04:40.102Z,12.85
2018-03-19T08:05:41.530Z,12.57
2018-03-19T08:06:42.992Z,11.80
2018-03-19T08:07:44.404Z,12.18
2018-03-19T08:08:46.795Z,11.79
2018-03-19T08:09:48.188Z,12.37
2018-03-19T08:10:49.611Z,12.46
2018-03-19T08:11:51.009Z,12.56
2018-03-19T08:12:52.411Z,12.57
2018-03-19T08:13:55.703Z,11.99
2018-03-19T08:14:57.110Z,10.85
2018-03-19T08:15:58.635Z,10.37
2018-03-19T08:17:00.035Z,10.28
2018-03-19T08:18:01.444Z,10.08
2018-03-19T08:19:02.832Z,9.89
2018-03-19T08:20:04.269Z,10.18
2018-03-19T08:21:05.672Z,10.28
2018-03-19T08:22:07.081Z,9.61
2018-03-19T08:23:08.472Z,9.52
2018-03-19T08:24:09.870Z,8.55
2018-03-19T08:25:11.274Z,8.17
2018-03-19T08:26:12.676Z,8.36
2018-03-19T08:27:14.086Z,8.64
2018-03-19T08:28:15.486Z,9.61
2018-03-19T08:29:16.881Z,9.22
2018-03-19T08:30:19.568Z,8.94
2018-03-19T08:31:25.033Z,8.65
2018-03-19T08:32:26.430Z,8.84
2018-03-19T08:33:27.842Z,8.46
2018-03-19T08:34:29.264Z,8.36
2018-03-19T08:35:30.668Z,8.46
2018-03-19T08:36:32.081Z,8.26
2018-03-19T08:37:33.436Z,9.03
2018-03-19T08:38:34.840Z,8.84
2018-03-19T08:39:36.645Z,8.07
2018-03-19T08:40:38.189Z,8.08
2018-03-19T08:41:39.589Z,7.99
2018-03-19T08:42:41.041Z,7.60
2018-03-19T08:43:42.444Z,7.60
2018-03-19T08:44:43.843Z,7.22
2018-03-19T08:45:45.247Z,7.71
2018-03-19T08:46:46.657Z,6.83
2018-03-19T08:47:48.919Z,6.82
2018-03-19T08:48:50.265Z,7.21
2018-03-19T08:49:51.679Z,7.59
2018-03-19T08:50:53.081Z,7.12
2018-03-19T08:51:55.390Z,7.50
2018-03-19T08:52:56.787Z,7.51
2018-03-19T08:53:58.191Z,8.09
2018-03-19T08:54:59.594Z,7.71
2018-03-19T08:56:00.994Z,7.04
2018-03-19T08:57:02.398Z,6.38
2018-03-19T08:58:03.811Z,5.60
2018-03-19T08:59:05.258Z,4.63
2018-03-19T09:00:06.663Z,4.73
2018-03-19T09:01:08.069Z,4.63
2018-03-19T09:02:09.512Z,4.53
2018-03-19T09:03:10.905Z,4.63
2018-03-19T09:04:12.320Z,4.93
2018-03-19T09:05:13.738Z,4.25
2018-03-19T09:06:15.133Z,4.35
2018-03-19T09:07:16.611Z,4.53
2018-03-19T09:08:17.965Z,5.01
2018-03-19T09:09:19.373Z,5.79
2018-03-19T09:10:20.787Z,5.60
2018-03-19T09:11:22.195Z,4.64
2018-03-19T09:12:23.593Z,4.06
2018-03-19T09:13:25.003Z,3.96
2018-03-19T09:14:26.407Z,4.25
2018-03-19T09:15:27.818Z,4.26
2018-03-19T09:16:29.232Z,3.88
2018-03-19T09:17:31.575Z,3.30
2018-03-19T09:18:32.988Z,2.81
2018-03-19T09:19:34.389Z,2.62
2018-03-19T09:20:36.538Z,2.13
2018-03-19T09:21:37.947Z,2.22
2018-03-19T09:22:39.352Z,2.42
2018-03-19T09:23:40.780Z,3.20
2018-03-19T09:24:42.187Z,2.81
2018-03-19T09:25:43.590Z,2.33
2018-03-19T09:26:44.986Z,1.84
2018-03-19T09:27:46.396Z,1.35
2018-03-19T09:28:47.855Z,1.07
2018-03-19T09:29:49.214Z,1.26
2018-03-19T09:30:50.624Z,1.84
2018-03-19T09:31:52.032Z,1.75
2018-03-19T09:32:53.447Z,1.84
2018-03-19T09:33:54.863Z,1.84
2018-03-19T09:34:56.273Z,1.45
2018-03-19T09:35:57.686Z,1.35
2018-03-19T09:36:59.106Z,1.45
2018-03-19T09:38:00.510Z,2.03
2018-03-19T09:39:01.913Z,2.23
2018-03-19T09:40:03.337Z,1.93
2018-03-19T09:41:04.749Z,2.13
2018-03-19T09:42:06.149Z,2.13
2018-03-19T09:43:07.565Z,1.84
2018-03-19T09:44:08.963Z,2.42
2018-03-19T09:45:10.390Z,2.52
2018-03-19T09:46:11.793Z,2.13
2018-03-19T09:47:13.212Z,1.84
2018-03-19T09:48:14.644Z,2.12
2018-03-19T09:49:16.032Z,2.03
2018-03-19T09:50:17.443Z,2.70
2018-03-19T09:51:18.869Z,2.42
2018-03-19T09:52:23.788Z,2.61
2018-03-19T09:53:25.206Z,2.22
2018-03-19T09:54:26.618Z,2.42
2018-03-19T09:55:28.028Z,1.84
2018-03-19T09:56:29.434Z,2.42
2018-03-19T09:57:30.844Z,2.52
2018-03-19T09:58:32.264Z,1.93
2018-03-19T09:59:33.674Z,1.84
2018-03-19T10:00:35.086Z,1.65
2018-03-19T10:01:36.492Z,1.26
2018-03-19T10:02:37.898Z,1.45
2018-03-19T10:03:39.304Z,1.35
2018-03-19T10:04:40.712Z,0.78
2018-03-19T10:05:42.124Z,0.78
2018-03-19T10:06:43.539Z,0.68
2018-03-19T10:07:44.957Z,0.29
2018-03-19T10:08:46.375Z,0.68
2018-03-19T10:09:47.783Z,0.68
2018-03-19T10:10:49.205Z,1.26
2018-03-19T10:11:50.623Z,1.74
2018-03-19T10:12:52.028Z,1.64
2018-03-19T10:13:53.443Z,1.84
2018-03-19T10:14:55.137Z,1.74
2018-03-19T10:15:56.445Z,2.12
2018-03-19T10:16:57.864Z,2.32
2018-03-19T10:17:59.284Z,1.93
2018-03-19T10:19:00.690Z,1.74
2018-03-19T10:20:02.114Z,1.64
2018-03-19T10:21:03.514Z,1.64
2018-03-19T10:22:04.920Z,1.35
2018-03-19T10:23:06.338Z,1.64
2018-03-19T10:24:07.736Z,1.64
2018-03-19T10:25:09.145Z,1.45
2018-03-19T10:26:10.562Z,1.55
2018-03-19T10:27:12.570Z,1.26
2018-03-19T10:28:13.999Z,1.84
2018-03-19T10:29:15.398Z,1.35
2018-03-19T10:30:16.804Z,1.16
2018-03-19T10:31:18.220Z,0.68
2018-03-19T10:32:19.629Z,0.78
2018-03-19T10:33:21.044Z,0.68
2018-03-19T10:34:22.459Z,1.06
2018-03-19T10:35:23.869Z,1.26
2018-03-19T10:36:25.284Z,1.74
2018-03-19T10:37:26.688Z,2.12
2018-03-19T10:38:28.109Z,1.93
2018-03-19T10:39:29.521Z,1.84
2018-03-19T10:40:30.928Z,1.84
2018-03-19T10:41:32.328Z,1.64
2018-03-19T10:42:33.746Z,1.65
2018-03-19T10:43:35.150Z,1.65
2018-03-19T10:44:36.561Z,1.55
2018-03-19T10:45:37.971Z,1.55
2018-03-19T10:46:39.398Z,1.55
2018-03-19T10:47:40.806Z,1.06
2018-03-19T10:48:42.214Z,1.16
2018-03-19T10:49:43.620Z,1.74
2018-03-19T10:50:45.036Z,1.16
2018-03-19T10:51:46.433Z,1.45
2018-03-19T10:52:47.864Z,1.35
2018-03-19T10:53:49.252Z,1.06
2018-03-19T10:54:50.669Z,1.45
2018-03-19T10:55:52.079Z,1.35
2018-03-19T10:56:53.485Z,1.25
2018-03-19T10:57:54.899Z,1.64
2018-03-19T10:58:56.317Z,1.84
2018-03-19T10:59:57.782Z,1.55
2018-03-19T11:00:59.131Z,1.65
2018-03-19T11:02:00.561Z,1.35
2018-03-19T11:03:02.035Z,1.16
2018-03-19T11:04:03.389Z,0.48
2018-03-19T11:05:04.795Z,0.78
2018-03-19T11:06:06.207Z,0.68
2018-03-19T11:07:07.617Z,0.87
2018-03-19T11:08:09.043Z,0.87
2018-03-19T11:09:10.444Z,0.77
2018-03-19T11:10:11.859Z,1.35
2018-03-19T11:11:13.264Z,1.83
2018-03-19T11:12:14.742Z,2.31
2018-03-19T11:13:16.092Z,2.98
2018-03-19T11:14:17.500Z,3.85
2018-03-19T11:15:18.914Z,4.33
2018-03-19T11:16:20.324Z,5.28
2018-03-19T11:17:21.770Z,5.47
2018-03-19T11:18:23.138Z,5.85
2018-03-19T11:19:24.540Z,6.23
2018-03-19T11:20:25.956Z,6.99
2018-03-19T11:21:27.414Z,7.46
2018-03-19T11:22:28.762Z,8.12
2018-03-19T11:23:30.177Z,8.70
2018-03-19T11:24:31.575Z,9.75
2018-03-19T11:25:32.987Z,10.14
2018-03-19T11:26:34.391Z,9.48
2018-03-19T11:27:35.791Z,8.25
2018-03-19T11:28:37.198Z,6.63
2018-03-19T11:29:38.610Z,5.48
2018-03-19T11:30:40.025Z,4.91
2018-03-19T11:31:41.428Z,4.33
2018-03-19T11:32:42.832Z,4.43
2018-03-19T11:33:44.235Z,4.71
2018-03-19T11:34:46.582Z,4.62
2018-03-19T11:35:47.979Z,3.66
2018-03-19T11:36:49.372Z,3.37
2018-03-19T11:37:50.779Z,3.09
2018-03-19T11:38:52.448Z,2.89
2018-03-19T11:39:53.846Z,2.60
2018-03-19T11:40:55.255Z,2.89
2018-03-19T11:41:56.677Z,3.37
2018-03-19T11:42:58.060Z,3.47
2018-03-19T11:43:59.424Z,3.94
2018-03-19T11:45:00.870Z,4.52
2018-03-19T11:46:02.268Z,4.80
2018-03-19T11:47:03.675Z,5.00
2018-03-19T11:48:05.083Z,4.81
2018-03-19T11:49:06.490Z,4.62
2018-03-19T11:50:07.900Z,4.13
2018-03-19T11:51:09.295Z,4.33
2018-03-19T11:52:10.713Z,4.52
2018-03-19T11:53:12.103Z,4.62
2018-03-19T11:54:13.505Z,4.72
2018-03-19T11:55:14.920Z,4.43
2018-03-19T11:56:16.335Z,4.14
2018-03-19T11:57:17.729Z,4.24
2018-03-19T11:58:19.131Z,4.14
2018-03-19T11:59:20.541Z,4.71
2018-03-19T12:00:21.933Z,4.71
2018-03-19T12:01:23.357Z,4.61
2018-03-19T12:02:24.760Z,5.09
2018-03-19T12:03:26.169Z,6.04
2018-03-19T12:04:27.568Z,6.14
2018-03-19T12:05:28.974Z,6.43
2018-03-19T12:06:30.387Z,6.90
2018-03-19T12:07:31.792Z,6.99
2018-03-19T12:08:33.194Z,7.95
2018-03-19T12:09:34.603Z,8.05
2018-03-19T12:10:36.029Z,8.14
2018-03-19T12:11:37.542Z,8.04
2018-03-19T12:12:38.756Z,8.51
2018-03-19T12:13:40.178Z,8.99
2018-03-19T12:14:41.584Z,9.56
2018-03-19T12:15:42.980Z,9.94
2018-03-19T12:16:44.382Z,10.33
2018-03-19T12:17:45.786Z,10.80
2018-03-19T12:18:47.222Z,10.89
2018-03-19T12:19:48.634Z,11.37
2018-03-19T12:20:50.037Z,11.66
2018-03-19T12:21:51.437Z,11.74
2018-03-19T12:22:52.853Z,11.65
2018-03-19T12:23:54.259Z,11.74
2018-03-19T12:24:55.673Z,11.94
2018-03-19T12:25:57.069Z,12.23
2018-03-19T12:26:58.478Z,11.85
2018-03-19T12:28:00.033Z,11.28
2018-03-19T12:29:01.435Z,11.57
2018-03-19T12:30:02.842Z,10.62
2018-03-19T12:31:04.336Z,9.95
2018-03-19T12:32:05.733Z,10.15
2018-03-19T12:33:07.149Z,9.10
2018-03-19T12:34:08.546Z,8.62
2018-03-19T12:35:09.939Z,8.14
2018-03-19T12:36:11.346Z,8.14
2018-03-19T12:37:12.753Z,7.95
2018-03-19T12:38:14.156Z,8.81
2018-03-19T12:39:15.556Z,9.38
2018-03-19T12:40:16.948Z,8.90
2018-03-19T12:41:18.350Z,8.89
2018-03-19T12:42:19.754Z,9.47
2018-03-19T12:43:21.154Z,9.66
2018-03-19T12:44:22.570Z,9.85
2018-03-19T12:45:23.983Z,10.52
2018-03-19T12:46:25.379Z,10.51
2018-03-19T12:47:26.869Z,10.79
2018-03-19T12:48:28.266Z,11.55
2018-03-19T12:49:29.659Z,11.84
2018-03-19T12:50:31.072Z,12.13
2018-03-19T12:51:32.475Z,11.84
2018-03-19T12:52:33.876Z,11.65
2018-03-19T12:53:35.883Z,11.66
2018-03-19T12:54:37.302Z,11.38
2018-03-19T12:55:38.693Z,11.47
2018-03-19T12:56:40.087Z,11.66
2018-03-19T12:57:41.485Z,11.85
2018-03-19T12:58:42.892Z,11.94
2018-03-19T12:59:44.295Z,12.43
2018-03-19T13:00:45.686Z,11.66
2018-03-19T13:01:47.084Z,10.99
2018-03-19T13:02:48.477Z,10.80
2018-03-19T13:03:49.881Z,10.80
2018-03-19T13:04:51.286Z,10.80
2018-03-19T13:05:52.677Z,10.70
2018-03-19T13:06:54.077Z,10.89
2018-03-19T13:07:55.478Z,11.38
2018-03-19T13:08:56.945Z,11.18
2018-03-19T13:09:58.240Z,11.46
2018-03-19T13:10:59.637Z,12.51
2018-03-19T13:12:01.029Z,13.26
2018-03-19T13:13:02.436Z,14.40
2018-03-19T13:14:03.875Z,14.87
2018-03-19T13:15:05.292Z,15.72
2018-03-19T13:16:06.676Z,16.39
2018-03-19T13:17:08.077Z,16.87
2018-03-19T13:18:09.958Z,17.16
2018-03-19T13:19:11.348Z,17.35